Time;durP1;ratioP1;P1;durP2;ratioP2;P2;SDS_P1;SDS_P2;PMS_P1;PMS_P2;Temp;Humidity;BMP_temperature;BMP_pressure;BME280_temperature;BME280_humidity;BME280_pressure;Samples;Min_cycle;Max_cycle;Signal;HPM_P1;HPM_P2
2022/04/08 00:01:21;;;;;;;7.28;1.35;;;5.20;99.90;;;;;;5052046;28;20044;-50
2022/04/08 00:03:47;;;;;;;6.72;1.33;;;5.20;99.90;;;;;;5055469;28;20398;-50
2022/04/08 00:06:13;;;;;;;7.05;1.20;;;5.00;99.90;;;;;;5070866;28;20036;-52
2022/04/08 00:08:39;;;;;;;10.02;1.27;;;5.10;99.90;;;;;;5071893;28;20488;-53
2022/04/08 00:11:04;;;;;;;5.32;1.75;;;5.10;99.90;;;;;;5071807;28;20040;-51
2022/04/08 00:13:30;;;;;;;0.93;0.47;;;4.90;99.90;;;;;;5071684;28;20051;-50
2022/04/08 00:15:56;;;;;;;3.70;1.10;;;4.30;99.90;;;;;;5072024;28;20173;-48
2022/04/08 00:18:21;;;;;;;4.70;0.90;;;4.30;99.90;;;;;;5071887;28;20044;-51
2022/04/08 00:20:47;;;;;;;6.32;1.08;;;3.90;99.90;;;;;;5071436;28;20037;-49
2022/04/08 00:23:13;;;;;;;4.18;0.95;;;3.80;99.90;;;;;;5066990;28;20516;-48
2022/04/08 00:25:38;;;;;;;7.05;1.30;;;3.90;99.90;;;;;;5051781;28;20351;-48
2022/04/08 00:28:04;;;;;;;7.50;1.27;;;3.90;99.90;;;;;;5051610;28;20380;-47
2022/04/08 00:30:30;;;;;;;7.95;1.38;;;3.80;99.90;;;;;;5066989;28;20106;-49
2022/04/08 00:32:57;;;;;;;6.95;1.23;;;3.70;99.90;;;;;;5051719;28;20047;-48
2022/04/08 00:35:23;;;;;;;6.18;1.13;;;4.00;99.90;;;;;;5051618;28;20041;-47
2022/04/08 00:37:50;;;;;;;10.30;1.30;;;3.80;99.90;;;;;;5052192;28;20095;-47
2022/04/08 00:40:16;;;;;;;7.80;1.42;;;4.00;99.90;;;;;;5054280;28;20049;-47
2022/04/08 00:42:43;;;;;;;12.35;1.40;;;4.00;99.90;;;;;;5055437;28;20037;-47
2022/04/08 00:45:09;;;;;;;12.63;2.38;;;4.00;99.90;;;;;;5055380;28;20087;-48
2022/04/08 00:47:36;;;;;;;12.10;1.95;;;4.20;99.90;;;;;;5054460;28;20393;-47
2022/04/08 00:50:03;;;;;;;10.45;1.90;;;4.10;99.90;;;;;;5055558;28;20045;-48
2022/04/08 00:52:33;;;;;;;12.95;1.90;;;3.90;99.90;;;;;;5055378;28;20391;-49
2022/04/08 00:54:59;;;;;;;9.07;1.45;;;3.70;99.90;;;;;;5055246;28;20049;-51
2022/04/08 00:57:25;;;;;;;9.90;2.05;;;3.60;99.90;;;;;;5055428;28;20359;-50
2022/04/08 00:59:51;;;;;;;10.30;1.85;;;3.40;99.90;;;;;;5055006;28;20049;-49
2022/04/08 01:02:17;;;;;;;10.07;2.35;;;3.50;99.90;;;;;;5053889;28;20041;-52
2022/04/08 01:04:43;;;;;;;19.88;2.15;;;3.50;99.90;;;;;;5066245;28;20029;-53
2022/04/08 01:07:08;;;;;;;9.52;1.80;;;3.50;99.90;;;;;;5075159;28;20036;-47
2022/04/08 01:09:35;;;;;;;14.35;2.33;;;3.50;99.90;;;;;;5075089;28;20137;-47
2022/04/08 01:12:00;;;;;;;12.93;1.92;;;3.70;99.90;;;;;;5057167;28;20510;-50
2022/04/08 01:14:26;;;;;;;12.95;2.05;;;3.60;99.90;;;;;;5074785;28;20079;-47
2022/04/08 01:16:52;;;;;;;12.57;1.85;;;3.60;99.90;;;;;;5074522;28;20400;-51
2022/04/08 01:19:17;;;;;;;13.02;2.05;;;3.70;99.90;;;;;;5074848;28;20143;-50
2022/04/08 01:21:43;;;;;;;11.45;1.88;;;3.70;99.90;;;;;;5074592;28;20040;-48
2022/04/08 01:24:13;;;;;;;9.07;1.40;;;3.70;99.90;;;;;;5062860;28;20052;-48
2022/04/08 01:26:40;;;;;;;8.55;1.35;;;3.80;99.90;;;;;;5054641;28;20556;-50
2022/04/08 01:29:06;;;;;;;9.88;1.90;;;3.60;99.90;;;;;;5069756;28;20497;-47
2022/04/08 01:31:31;;;;;;;8.85;2.88;;;3.80;99.90;;;;;;5054504;28;20048;-48
2022/04/08 01:33:57;;;;;;;10.57;1.88;;;3.70;99.90;;;;;;5054904;28;20511;-51
2022/04/08 01:36:23;;;;;;;12.20;1.77;;;3.60;99.90;;;;;;5069640;28;20551;-50
2022/04/08 01:38:48;;;;;;;12.68;1.70;;;3.60;99.90;;;;;;5054308;28;20116;-51
2022/04/08 01:41:17;;;;;;;9.20;1.95;;;3.70;99.90;;;;;;5054399;28;20132;-47
2022/04/08 01:43:44;;;;;;;11.88;1.80;;;3.70;99.90;;;;;;5054182;28;20117;-48
2022/04/08 01:46:10;;;;;;;11.00;1.88;;;3.90;99.90;;;;;;5054121;28;20527;-47
2022/04/08 01:48:36;;;;;;;9.55;2.05;;;3.70;99.90;;;;;;5069682;28;20073;-49
2022/04/08 01:51:01;;;;;;;11.93;1.90;;;3.80;99.90;;;;;;5053399;28;20079;-49
2022/04/08 01:53:27;;;;;;;10.05;2.03;;;3.60;99.90;;;;;;5054054;28;20059;-48
2022/04/08 01:55:53;;;;;;;13.73;1.77;;;3.80;99.90;;;;;;5054054;28;20056;-48
2022/04/08 01:58:19;;;;;;;15.02;2.08;;;3.70;99.90;;;;;;5054193;28;20114;-48
2022/04/08 02:00:44;;;;;;;11.43;2.17;;;3.70;99.90;;;;;;5054170;28;20051;-46
2022/04/08 02:03:10;;;;;;;16.10;2.00;;;3.90;99.90;;;;;;5053899;28;20400;-48
2022/04/08 02:05:36;;;;;;;16.38;3.63;;;3.80;99.90;;;;;;5069247;28;20033;-47
2022/04/08 02:08:01;;;;;;;19.70;2.97;;;3.90;99.90;;;;;;5069273;28;20036;-48
2022/04/08 02:10:27;;;;;;;13.15;2.42;;;3.80;99.90;;;;;;5054024;28;20393;-48
2022/04/08 02:12:53;;;;;;;13.60;2.72;;;4.00;99.90;;;;;;5054081;28;20553;-47
2022/04/08 02:15:28;;;;;;;12.38;2.15;;;4.00;99.90;;;;;;5069363;28;20485;-48
2022/04/08 02:17:55;;;;;;;14.57;2.50;;;3.90;99.90;;;;;;5053784;28;20049;-48
2022/04/08 02:20:21;;;;;;;21.75;2.47;;;4.00;99.90;;;;;;5053732;28;20053;-50
2022/04/08 02:22:46;;;;;;;13.45;2.83;;;4.10;99.90;;;;;;5053461;28;20052;-47
2022/04/08 02:25:12;;;;;;;10.98;1.77;;;4.00;99.90;;;;;;5052190;28;20413;-48
2022/04/08 02:27:38;;;;;;;14.65;2.75;;;3.90;99.90;;;;;;5053786;28;20040;-47
2022/04/08 02:30:04;;;;;;;10.73;1.70;;;4.10;99.90;;;;;;5053724;28;20115;-50
2022/04/08 02:32:30;;;;;;;8.15;1.80;;;4.00;99.90;;;;;;5053382;28;20079;-48
2022/04/08 02:34:56;;;;;;;12.23;2.42;;;4.00;99.90;;;;;;5053526;28;20041;-50
2022/04/08 02:37:21;;;;;;;16.25;2.75;;;3.90;99.90;;;;;;5053335;28;20086;-48
2022/04/08 02:39:47;;;;;;;16.45;2.17;;;3.80;99.90;;;;;;5053586;28;20584;-48
2022/04/08 02:42:13;;;;;;;11.15;2.40;;;3.80;99.90;;;;;;5053355;28;20377;-48
2022/04/08 02:44:38;;;;;;;13.95;2.08;;;3.90;99.90;;;;;;5053447;28;20480;-48
2022/04/08 02:47:04;;;;;;;11.15;1.80;;;3.80;99.90;;;;;;5053282;28;20045;-48
2022/04/08 02:49:30;;;;;;;12.52;2.03;;;3.90;99.90;;;;;;5053103;28;20059;-49
2022/04/08 02:51:56;;;;;;;5.35;1.30;;;3.90;99.90;;;;;;5053355;28;20052;-48
2022/04/08 02:54:21;;;;;;;11.40;1.75;;;3.80;99.90;;;;;;5051838;28;20045;-47
2022/04/08 02:56:47;;;;;;;7.38;1.65;;;3.80;99.90;;;;;;5051838;28;20043;-48
2022/04/08 02:59:13;;;;;;;8.13;1.42;;;3.70;99.90;;;;;;5053214;28;20045;-49
2022/04/08 03:01:38;;;;;;;7.65;2.22;;;3.70;99.90;;;;;;5051851;28;20044;-51
2022/04/08 03:04:06;;;;;;;5.53;1.23;;;3.70;99.90;;;;;;5058645;28;20032;-47
2022/04/08 03:06:33;;;;;;;7.25;1.55;;;3.70;99.90;;;;;;5071541;28;20040;-47
2022/04/08 03:08:58;;;;;;;6.68;1.60;;;3.70;99.90;;;;;;5071998;28;20036;-48
2022/04/08 03:11:24;;;;;;;12.90;2.65;;;3.60;99.90;;;;;;5072881;28;20037;-48
2022/04/08 03:13:49;;;;;;;8.90;2.17;;;3.60;99.90;;;;;;5054713;28;20399;-48
2022/04/08 03:16:15;;;;;;;9.93;1.67;;;3.70;99.90;;;;;;5071425;28;20044;-51
2022/04/08 03:18:41;;;;;;;7.55;1.70;;;3.70;99.90;;;;;;5072384;28;20125;-47
2022/04/08 03:21:06;;;;;;;7.18;1.60;;;3.70;99.90;;;;;;5072716;28;20068;-47
2022/04/08 03:23:32;;;;;;;9.40;1.50;;;3.70;99.90;;;;;;5071252;28;20052;-52
2022/04/08 03:25:58;;;;;;;6.72;1.30;;;3.80;99.90;;;;;;5072437;28;20063;-49
2022/04/08 03:28:24;;;;;;;6.97;1.65;;;3.70;99.90;;;;;;5072482;28;20047;-49
2022/04/08 03:30:49;;;;;;;8.45;1.30;;;3.80;99.90;;;;;;5072396;28;20132;-47
2022/04/08 03:33:15;;;;;;;6.63;1.35;;;3.70;99.90;;;;;;5072367;28;20081;-50
2022/04/08 03:35:41;;;;;;;7.43;1.73;;;3.70;99.90;;;;;;5072289;28;20416;-47
2022/04/08 03:38:06;;;;;;;5.80;1.60;;;3.70;99.90;;;;;;5072321;28;20044;-47
2022/04/08 03:40:34;;;;;;;7.95;1.63;;;3.70;99.90;;;;;;5072233;28;20442;-44
2022/04/08 03:43:00;;;;;;;9.00;1.73;;;3.70;99.90;;;;;;5072087;28;20045;-45
2022/04/08 03:45:25;;;;;;;10.82;1.60;;;3.80;99.90;;;;;;5072156;28;20400;-44
2022/04/08 03:47:51;;;;;;;9.93;2.47;;;3.90;99.90;;;;;;5070643;28;20123;-44
2022/04/08 03:50:17;;;;;;;11.90;2.00;;;4.20;99.90;;;;;;5071085;28;20048;-44
2022/04/08 03:52:43;;;;;;;10.48;2.00;;;4.20;99.90;;;;;;5071854;28;20040;-44
2022/04/08 03:55:10;;;;;;;8.02;2.03;;;4.30;99.90;;;;;;5070996;28;20135;-45
2022/04/08 03:57:35;;;;;;;5.85;1.35;;;3.50;99.90;;;;;;5071933;28;20044;-45
2022/04/08 04:00:02;;;;;;;5.68;1.55;;;3.20;99.90;;;;;;5071729;28;20047;-47
2022/04/08 04:02:28;;;;;;;7.97;1.33;;;3.00;99.90;;;;;;5071431;28;20404;-48
2022/04/08 04:04:59;;;;;;;7.32;1.80;;;3.00;99.90;;;;;;5071733;28;20040;-44
2022/04/08 04:07:26;;;;;;;6.85;1.75;;;2.90;99.90;;;;;;5071906;28;20054;-45
2022/04/08 04:09:52;;;;;;;7.78;1.70;;;2.80;99.90;;;;;;5071984;28;20068;-48
2022/04/08 04:12:17;;;;;;;4.72;1.42;;;2.90;99.90;;;;;;5070383;28;20040;-44
2022/04/08 04:14:43;;;;;;;9.02;1.90;;;2.80;99.90;;;;;;5071382;28;20040;-46
2022/04/08 04:17:09;;;;;;;7.75;2.05;;;3.00;99.90;;;;;;5071555;28;20072;-48
2022/04/08 04:19:35;;;;;;;7.25;1.67;;;2.80;99.90;;;;;;5070253;28;20048;-47
2022/04/08 04:22:00;;;;;;;7.85;1.88;;;3.00;99.90;;;;;;5070274;28;20041;-45
2022/04/08 04:24:27;;;;;;;8.40;1.80;;;3.00;99.90;;;;;;5056954;28;20049;-45
2022/04/08 04:26:53;;;;;;;6.95;1.90;;;2.90;99.90;;;;;;5051550;28;20447;-49
2022/04/08 04:29:19;;;;;;;8.35;2.03;;;2.90;99.90;;;;;;5051643;28;20043;-47
2022/04/08 04:31:44;;;;;;;5.35;1.27;;;2.70;99.90;;;;;;5051385;28;20041;-46
2022/04/08 04:34:10;;;;;;;6.63;1.55;;;2.90;99.90;;;;;;5051735;28;20037;-45
2022/04/08 04:36:36;;;;;;;6.07;1.40;;;2.90;99.90;;;;;;5051410;28;20392;-49
2022/04/08 04:39:01;;;;;;;6.05;1.65;;;3.00;99.90;;;;;;5051547;28;20076;-48
2022/04/08 04:41:27;;;;;;;5.68;1.48;;;3.20;99.90;;;;;;5050118;28;20040;-47
2022/04/08 04:43:53;;;;;;;10.15;2.00;;;3.30;99.90;;;;;;5065133;28;20056;-45
2022/04/08 04:46:18;;;;;;;6.90;2.13;;;3.20;99.90;;;;;;5065269;28;20044;-44
2022/04/08 04:48:44;;;;;;;7.57;1.70;;;3.20;99.90;;;;;;5050045;28;20095;-45
2022/04/08 04:51:11;;;;;;;6.38;1.58;;;3.40;99.90;;;;;;5049788;28;20087;-45
2022/04/08 04:53:37;;;;;;;7.55;1.58;;;3.20;99.90;;;;;;5049752;28;20548;-46
2022/04/08 04:56:03;;;;;;;6.47;1.65;;;3.20;99.90;;;;;;5049537;28;20128;-48
2022/04/08 04:58:29;;;;;;;4.90;1.60;;;3.20;99.90;;;;;;5049681;28;20493;-49
2022/04/08 05:00:54;;;;;;;4.95;1.50;;;3.20;99.90;;;;;;5064993;28;20116;-48
2022/04/08 05:03:20;;;;;;;4.88;1.70;;;3.10;99.90;;;;;;5064854;28;20034;-48
2022/04/08 05:05:47;;;;;;;7.97;2.20;;;3.10;99.90;;;;;;5069618;28;20544;-46
2022/04/08 05:08:12;;;;;;;6.47;1.90;;;3.20;99.90;;;;;;5069790;28;20037;-44
2022/04/08 05:10:38;;;;;;;5.40;1.63;;;3.20;99.90;;;;;;5069700;28;20621;-46
2022/04/08 05:13:04;;;;;;;4.70;1.67;;;3.00;99.90;;;;;;5069667;28;20075;-47
2022/04/08 05:15:32;;;;;;;10.15;1.75;;;2.90;99.90;;;;;;5069516;28;20134;-47
2022/04/08 05:17:59;;;;;;;7.00;1.70;;;2.90;99.90;;;;;;5069668;28;20040;-45
2022/04/08 05:20:25;;;;;;;7.30;2.25;;;2.90;99.90;;;;;;5069687;28;20048;-44
2022/04/08 05:22:50;;;;;;;5.47;1.50;;;2.80;99.90;;;;;;5068437;28;20104;-45
2022/04/08 05:25:16;;;;;;;6.72;1.63;;;2.80;99.90;;;;;;5050864;28;20509;-45
2022/04/08 05:27:42;;;;;;;6.65;1.60;;;2.80;99.90;;;;;;5053186;28;20120;-45
2022/04/08 05:30:12;;;;;;;7.32;1.70;;;2.80;99.90;;;;;;5053129;28;20441;-46
2022/04/08 05:32:38;;;;;;;8.43;2.30;;;2.80;99.90;;;;;;5053110;28;20045;-46
2022/04/08 05:35:04;;;;;;;7.43;1.67;;;2.90;99.90;;;;;;5053360;28;20481;-46
2022/04/08 05:37:30;;;;;;;6.78;1.70;;;2.90;99.90;;;;;;5053103;28;20131;-46
2022/04/08 05:39:56;;;;;;;6.65;2.35;;;3.00;99.90;;;;;;5052852;28;20125;-48
2022/04/08 05:42:22;;;;;;;10.75;1.70;;;3.00;99.90;;;;;;5068227;28;20090;-46
2022/04/08 05:44:48;;;;;;;8.45;1.55;;;3.00;99.90;;;;;;5067958;28;20508;-47
2022/04/08 05:47:13;;;;;;;7.50;1.95;;;3.00;99.90;;;;;;5068116;28;20045;-46
2022/04/08 05:49:39;;;;;;;6.70;1.70;;;3.10;99.90;;;;;;5052746;28;20194;-48
2022/04/08 05:52:05;;;;;;;7.03;1.90;;;3.10;99.90;;;;;;5052720;28;20045;-45
2022/04/08 05:54:31;;;;;;;7.25;1.55;;;3.00;99.90;;;;;;5052813;28;20041;-48
2022/04/08 05:57:01;;;;;;;9.55;2.08;;;3.00;99.90;;;;;;5052670;28;20354;-45
2022/04/08 05:59:28;;;;;;;8.63;2.08;;;3.10;99.90;;;;;;5052785;28;20047;-46
2022/04/08 06:01:54;;;;;;;5.40;1.88;;;3.20;99.90;;;;;;5052365;28;20044;-45
2022/04/08 06:04:20;;;;;;;5.95;1.77;;;3.20;99.90;;;;;;5060613;28;20048;-46
2022/04/08 06:06:46;;;;;;;11.05;3.30;;;3.20;99.90;;;;;;5072611;28;20036;-45
2022/04/08 06:09:12;;;;;;;7.45;2.17;;;3.30;99.90;;;;;;5072549;28;20445;-47
2022/04/08 06:11:38;;;;;;;5.97;1.63;;;3.40;99.90;;;;;;5072319;28;20341;-47
2022/04/08 06:14:04;;;;;;;5.07;1.90;;;3.60;99.90;;;;;;5072499;28;20047;-46
2022/04/08 06:16:29;;;;;;;5.47;1.90;;;3.50;99.90;;;;;;5072296;28;20374;-46
2022/04/08 06:18:56;;;;;;;7.50;1.95;;;3.60;99.90;;;;;;5072317;28;20037;-47
2022/04/08 06:21:22;;;;;;;8.52;2.95;;;3.80;99.90;;;;;;5072112;28;20121;-46
2022/04/08 06:23:49;;;;;;;7.95;2.25;;;3.90;99.90;;;;;;5062760;28;20048;-47
2022/04/08 06:26:15;;;;;;;15.27;3.10;;;3.80;99.90;;;;;;5052059;28;20041;-49
2022/04/08 06:28:41;;;;;;;6.80;1.90;;;3.90;99.90;;;;;;5052297;28;20029;-50
2022/04/08 06:31:07;;;;;;;8.90;2.40;;;4.00;99.90;;;;;;5052241;28;20048;-47
2022/04/08 06:33:33;;;;;;;12.40;2.25;;;4.10;99.90;;;;;;5052137;28;20048;-50
2022/04/08 06:36:00;;;;;;;10.38;2.00;;;4.30;99.90;;;;;;5051842;28;20041;-46
2022/04/08 06:38:26;;;;;;;11.45;2.83;;;4.20;99.90;;;;;;5051902;28;20094;-47
2022/04/08 06:40:51;;;;;;;10.20;1.98;;;4.30;99.90;;;;;;5067132;28;20041;-47
2022/04/08 06:43:17;;;;;;;10.38;2.15;;;4.40;99.90;;;;;;5051632;28;20443;-47
2022/04/08 06:45:43;;;;;;;8.15;2.10;;;4.50;99.90;;;;;;5051861;28;20072;-49
2022/04/08 06:48:08;;;;;;;10.63;2.33;;;4.50;99.90;;;;;;5041841;28;20504;-49
2022/04/08 06:50:35;;;;;;;13.27;2.67;;;4.50;99.90;;;;;;5033426;28;20058;-45
2022/04/08 06:53:01;;;;;;;11.35;3.53;;;4.70;99.90;;;;;;5047012;28;20084;-46
2022/04/08 06:55:27;;;;;;;12.15;2.40;;;4.60;99.90;;;;;;5030343;28;20049;-48
2022/04/08 06:57:53;;;;;;;15.82;2.85;;;4.90;99.90;;;;;;5031546;28;20051;-47
2022/04/08 07:00:21;;;;;;;8.48;2.63;;;4.90;99.90;;;;;;5047134;28;20060;-46
2022/04/08 07:02:47;;;;;;;9.82;2.10;;;5.00;99.90;;;;;;5031519;28;20422;-50
2022/04/08 07:05:13;;;;;;;10.93;2.88;;;5.00;99.90;;;;;;5062356;28;20036;-46
2022/04/08 07:07:39;;;;;;;10.30;2.63;;;5.20;99.90;;;;;;5071178;28;20044;-48
2022/04/08 07:10:06;;;;;;;9.65;2.10;;;5.30;99.90;;;;;;5071187;28;20093;-49
2022/04/08 07:12:32;;;;;;;9.82;2.10;;;5.40;99.90;;;;;;5071454;28;20091;-45
2022/04/08 07:14:57;;;;;;;12.65;4.18;;;5.50;99.90;;;;;;5071405;28;20120;-46
2022/04/08 07:17:30;;;;;;;13.60;2.10;;;5.60;99.90;;;;;;5071557;28;20131;-46
2022/04/08 07:19:57;;;;;;;9.90;1.90;;;5.60;99.90;;;;;;5072487;28;20097;-46
2022/04/08 07:22:23;;;;;;;11.85;2.33;;;5.70;99.90;;;;;;5072245;28;20048;-47
2022/04/08 07:24:50;;;;;;;11.75;2.72;;;6.00;99.90;;;;;;5053282;28;20485;-47
2022/04/08 07:27:17;;;;;;;12.75;2.30;;;5.90;99.90;;;;;;5050916;28;20082;-46
2022/04/08 07:29:43;;;;;;;8.32;2.00;;;5.70;99.90;;;;;;5043653;28;20055;-46
2022/04/08 07:32:09;;;;;;;5.93;1.70;;;5.80;99.90;;;;;;5052276;28;20037;-47
2022/04/08 07:34:36;;;;;;;6.22;2.13;;;5.80;99.90;;;;;;5052146;28;20037;-47
2022/04/08 07:37:03;;;;;;;6.05;1.38;;;5.60;99.90;;;;;;5052210;28;20045;-45
2022/04/08 07:39:28;;;;;;;6.53;1.30;;;5.60;99.90;;;;;;5052289;28;20452;-45
2022/04/08 07:41:54;;;;;;;8.10;1.55;;;5.50;99.90;;;;;;5052187;28;20106;-46
2022/04/08 07:44:20;;;;;;;9.15;1.58;;;5.60;99.90;;;;;;5051814;28;20425;-45
2022/04/08 07:46:45;;;;;;;10.23;1.50;;;5.70;99.90;;;;;;5051975;28;20140;-46
2022/04/08 07:49:11;;;;;;;8.18;1.77;;;5.80;99.90;;;;;;5050180;28;20037;-46
2022/04/08 07:51:36;;;;;;;9.00;1.70;;;6.00;99.90;;;;;;5051709;28;20047;-46
2022/04/08 07:54:02;;;;;;;6.28;1.70;;;5.80;99.90;;;;;;5052003;28;20041;-46
2022/04/08 07:56:28;;;;;;;8.80;1.60;;;6.10;99.90;;;;;;5051711;28;20044;-46
2022/04/08 07:58:54;;;;;;;6.72;2.13;;;6.10;99.90;;;;;;5052022;28;20098;-46
2022/04/08 08:01:19;;;;;;;11.55;2.42;;;6.30;99.90;;;;;;5051677;28;20116;-45
2022/04/08 08:03:47;;;;;;;8.57;1.70;;;6.30;99.90;;;;;;5054614;28;20044;-46
2022/04/08 08:06:13;;;;;;;7.45;1.58;;;6.50;99.90;;;;;;5071644;28;20047;-46
2022/04/08 08:08:39;;;;;;;8.93;1.95;;;6.70;99.90;;;;;;5071771;28;20033;-46
2022/04/08 08:11:11;;;;;;;8.00;1.50;;;6.80;99.90;;;;;;5071443;28;20119;-46
2022/04/08 08:13:37;;;;;;;6.18;1.50;;;7.00;99.90;;;;;;5071671;28;20052;-46
2022/04/08 08:16:03;;;;;;;6.35;2.03;;;7.10;99.90;;;;;;5070467;28;20538;-45
2022/04/08 08:18:29;;;;;;;5.28;1.20;;;7.30;99.90;;;;;;5070220;28;20088;-45
2022/04/08 08:20:54;;;;;;;6.10;1.40;;;7.30;99.90;;;;;;5071802;28;20052;-46
2022/04/08 08:23:21;;;;;;;6.53;1.83;;;7.00;99.90;;;;;;5066421;28;20162;-46
2022/04/08 08:25:47;;;;;;;6.45;1.40;;;6.90;99.90;;;;;;5050851;28;20141;-45
2022/04/08 08:28:14;;;;;;;4.20;1.10;;;6.90;99.90;;;;;;5050819;28;20143;-44
2022/04/08 08:30:40;;;;;;;11.73;1.60;;;7.30;99.90;;;;;;5051363;28;20112;-45
2022/04/08 08:33:06;;;;;;;6.95;1.38;;;7.50;99.90;;;;;;5051565;28;20043;-44
2022/04/08 08:35:33;;;;;;;12.07;2.38;;;7.30;99.90;;;;;;5066902;28;20068;-47
2022/04/08 08:38:00;;;;;;;5.78;1.55;;;7.20;99.90;;;;;;5051472;28;20041;-45
2022/04/08 08:40:32;;;;;;;6.38;1.40;;;7.20;99.90;;;;;;5066983;28;20045;-45
2022/04/08 08:43:00;;;;;;;4.55;1.20;;;7.30;99.90;;;;;;5047867;28;20077;-45
2022/04/08 08:45:32;;;;;;;7.22;1.30;;;7.50;99.90;;;;;;5048510;28;20079;-45
2022/04/08 08:47:59;;;;;;;;;;;7.60;99.90;;;;;;5043894;28;20033;-44
2022/04/08 08:50:25;;;;;;;6.43;1.40;;;7.80;99.90;;;;;;5040302;28;19927;-47
2022/04/08 08:52:51;;;;;;;8.15;1.88;;;7.80;99.90;;;;;;5034622;28;20038;-46
2022/04/08 08:55:17;;;;;;;7.57;1.73;;;7.30;99.90;;;;;;5031488;28;20485;-46
2022/04/08 08:57:45;;;;;;;8.07;1.65;;;6.70;99.90;;;;;;5031432;28;20371;-46
2022/04/08 09:00:18;;;;;;;9.32;1.60;;;6.50;99.90;;;;;;5033818;28;20049;-44
2022/04/08 09:02:45;;;;;;;14.50;1.90;;;6.60;99.90;;;;;;5033701;28;20046;-45
2022/04/08 09:05:14;;;;;;;8.00;2.03;;;6.60;99.90;;;;;;5064960;28;20099;-46
2022/04/08 09:07:40;;;;;;;8.38;2.10;;;6.90;99.90;;;;;;5075177;28;20052;-47
2022/04/08 09:10:06;;;;;;;8.90;1.80;;;7.30;99.90;;;;;;5069440;28;20045;-44
2022/04/08 09:12:32;;;;;;;8.27;1.65;;;7.10;99.90;;;;;;5055119;28;20114;-46
2022/04/08 09:15:00;;;;;;;11.15;1.70;;;6.80;99.90;;;;;;5045438;28;20482;-46
2022/04/08 09:17:27;;;;;;;8.05;1.80;;;6.90;99.90;;;;;;5034743;28;20103;-48
2022/04/08 09:19:56;;;;;;;8.23;1.50;;;6.70;99.90;;;;;;5033712;28;20034;-47
2022/04/08 09:22:27;;;;;;;6.13;1.60;;;6.60;99.90;;;;;;5033080;28;20033;-45
2022/04/08 09:24:52;;;;;;;7.78;1.20;;;6.70;99.90;;;;;;5050768;28;20576;-47
2022/04/08 09:27:18;;;;;;;6.13;1.20;;;6.90;99.90;;;;;;5053141;28;20120;-46
2022/04/08 09:29:45;;;;;;;6.40;1.27;;;7.10;99.90;;;;;;5051894;28;20466;-47
2022/04/08 09:32:12;;;;;;;7.78;1.42;;;7.30;99.90;;;;;;5053282;28;20076;-45
2022/04/08 09:34:40;;;;;;;8.15;1.42;;;7.30;99.90;;;;;;5053160;28;20056;-49
2022/04/08 09:37:12;;;;;;;6.70;1.20;;;7.40;99.90;;;;;;5053155;28;20037;-48
2022/04/08 09:39:57;;;;;;;9.23;1.90;;;7.50;99.90;;;;;;5052918;28;20053;-48
2022/04/08 09:42:46;;;;;;;11.15;1.95;;;7.80;99.90;;;;;;5052642;28;20498;-48
2022/04/08 09:45:13;;;;;;;10.70;2.70;;;8.00;99.90;;;;;;5053032;28;20041;-47
2022/04/08 09:47:40;;;;;;;8.38;1.55;;;8.10;99.90;;;;;;5067959;28;20044;-47
2022/04/08 09:50:10;;;;;;;7.80;1.52;;;8.50;99.90;;;;;;5052811;28;20116;-46
2022/04/08 09:52:39;;;;;;;6.43;1.40;;;8.40;99.90;;;;;;5039464;28;20041;-49
2022/04/08 09:55:07;;;;;;;4.07;1.30;;;8.00;99.90;;;;;;5043512;28;20041;-47
2022/04/08 09:57:39;;;;;;;4.75;1.27;;;7.50;99.90;;;;;;5044041;28;20048;-49
2022/04/08 10:00:06;;;;;;;;;;;7.00;99.90;;;;;;5052221;28;20083;-47
2022/04/08 10:02:34;;;;;;;3.05;0.98;;;6.70;99.90;;;;;;5042413;28;19967;-47
2022/04/08 10:05:01;;;;;;;4.00;1.10;;;6.40;99.90;;;;;;5048766;28;20072;-45
2022/04/08 10:07:27;;;;;;;5.60;1.10;;;6.30;99.90;;;;;;5053147;28;20040;-47
2022/04/08 10:10:16;;;;;;;5.20;1.20;;;6.50;99.90;;;;;;5041773;28;20077;-45
2022/04/08 10:13:05;;;;;;;6.80;1.67;;;6.90;99.90;;;;;;5042591;28;20455;-46
2022/04/08 10:15:42;;;;;;;7.45;1.50;;;7.10;99.90;;;;;;5042585;28;20130;-45
2022/04/08 10:18:07;;;;;;;8.88;1.60;;;7.20;99.90;;;;;;5042901;28;20033;-46
2022/04/08 10:20:35;;;;;;;9.02;1.40;;;7.50;99.90;;;;;;5046787;28;20120;-47
2022/04/08 10:23:09;;;;;;;10.63;2.63;;;7.80;99.90;;;;;;5043741;28;20254;-49
2022/04/08 10:25:37;;;;;;;7.80;1.52;;;7.90;99.90;;;;;;5043414;28;20056;-45
2022/04/08 10:28:03;;;;;;;7.57;1.38;;;7.60;99.90;;;;;;5042780;28;20092;-45
2022/04/08 10:30:29;;;;;;;9.68;1.70;;;6.90;99.90;;;;;;5050080;28;20065;-48
2022/04/08 10:33:07;;;;;;;3.17;1.00;;;5.60;99.90;;;;;;5053097;28;20106;-52
2022/04/08 10:35:33;;;;;;;6.50;1.45;;;5.10;99.90;;;;;;5052909;28;20049;-49
2022/04/08 10:38:04;;;;;;;4.07;1.02;;;5.20;99.90;;;;;;5051741;28;20079;-52
2022/04/08 10:40:39;;;;;;;6.30;1.48;;;5.10;99.90;;;;;;5052645;28;20116;-47
2022/04/08 10:43:10;;;;;;;3.85;1.17;;;5.40;99.90;;;;;;5042603;28;20068;-47
2022/04/08 10:45:37;;;;;;;5.43;1.30;;;5.50;99.90;;;;;;5041385;28;20121;-49
2022/04/08 10:48:09;;;;;;;7.22;1.50;;;5.80;99.90;;;;;;5047439;28;20409;-51
2022/04/08 10:50:35;;;;;;;8.52;2.10;;;6.10;99.90;;;;;;5052737;28;20116;-58
2022/04/08 10:53:07;;;;;;;9.60;2.47;;;6.50;99.90;;;;;;5046854;28;20116;-49
2022/04/08 10:55:54;;;;;;;18.08;2.28;;;7.10;99.90;;;;;;5046800;28;20322;-52
2022/04/08 10:58:31;;;;;;;5.70;1.50;;;7.40;99.90;;;;;;5044271;28;20041;-51
2022/04/08 11:00:56;;;;;;;7.28;1.70;;;7.80;99.90;;;;;;5035849;28;20085;-50
2022/04/08 11:03:27;;;;;;;5.50;1.20;;;8.00;99.90;;;;;;5032288;28;20099;-49
2022/04/08 11:05:52;;;;;;;7.28;1.20;;;8.10;99.90;;;;;;5052693;28;20041;-47
2022/04/08 11:08:18;;;;;;;6.72;1.45;;;8.00;99.90;;;;;;5052367;28;20051;-50
2022/04/08 11:10:44;;;;;;;8.25;1.45;;;7.90;99.90;;;;;;5052536;28;20045;-48
2022/04/08 11:13:13;;;;;;;6.53;1.30;;;7.60;99.90;;;;;;5052118;28;20045;-52
2022/04/08 11:15:43;;;;;;;8.75;1.30;;;7.50;99.90;;;;;;5050869;28;20037;-49
2022/04/08 11:18:09;;;;;;;10.10;2.90;;;7.50;99.90;;;;;;5052090;28;20040;-47
2022/04/08 11:20:35;;;;;;;12.27;1.85;;;8.00;99.90;;;;;;5051353;28;20045;-50
2022/04/08 11:23:01;;;;;;;6.50;1.20;;;8.30;99.90;;;;;;5050644;28;20048;-47
2022/04/08 11:25:28;;;;;;;8.13;1.23;;;8.40;99.90;;;;;;5051683;28;20053;-47
2022/04/08 11:28:22;;;;;;;4.65;1.10;;;8.40;99.90;;;;;;5051741;28;20067;-48
2022/04/08 11:30:55;;;;;;;4.57;1.40;;;8.40;99.90;;;;;;5049951;28;20060;-47
2022/04/08 11:33:21;;;;;;;6.88;1.17;;;8.50;99.90;;;;;;5051952;28;20041;-51
2022/04/08 11:35:47;;;;;;;6.80;1.45;;;8.20;99.90;;;;;;5051620;28;20045;-51
2022/04/08 11:38:17;;;;;;;8.25;1.38;;;8.20;99.90;;;;;;5051686;28;20045;-50
2022/04/08 11:40:44;;;;;;;7.57;2.45;;;8.20;99.90;;;;;;5051760;28;20434;-50
2022/04/08 11:43:15;;;;;;;7.30;1.33;;;8.40;99.90;;;;;;5051496;28;20045;-53
2022/04/08 11:45:45;;;;;;;7.37;1.20;;;8.30;99.90;;;;;;5051837;28;20108;-48
2022/04/08 11:48:16;;;;;;;4.63;1.20;;;8.00;99.90;;;;;;5051774;28;20338;-52
2022/04/08 11:50:43;;;;;;;6.88;1.42;;;8.10;99.90;;;;;;5050223;28;20037;-49
2022/04/08 11:53:17;;;;;;;8.02;1.60;;;8.10;99.90;;;;;;5051800;28;20094;-51
2022/04/08 11:56:01;;;;;;;9.32;1.50;;;8.20;99.90;;;;;;5051648;28;20055;-48
2022/04/08 11:58:28;;;;;;;8.00;1.35;;;8.50;99.90;;;;;;5051590;28;20374;-49
2022/04/08 12:00:55;;;;;;;9.75;1.70;;;8.50;99.90;;;;;;5051474;28;20064;-52
2022/04/08 12:03:22;;;;;;;9.05;1.65;;;8.40;99.90;;;;;;5050644;28;20076;-48
2022/04/08 12:05:50;;;;;;;5.35;1.40;;;8.90;99.90;;;;;;5030959;28;20045;-49
2022/04/08 12:08:18;;;;;;;7.28;1.50;;;9.00;99.90;;;;;;5031044;28;20037;-50
2022/04/08 12:10:44;;;;;;;7.20;1.30;;;9.00;99.90;;;;;;5030976;28;20048;-52
2022/04/08 12:13:19;;;;;;;7.10;1.38;;;9.10;99.90;;;;;;5031231;28;20041;-50
2022/04/08 12:15:48;;;;;;;8.45;1.33;;;9.00;99.90;;;;;;5031033;28;20056;-50
2022/04/08 12:18:24;;;;;;;7.85;1.77;;;8.30;99.90;;;;;;5031239;28;20055;-53
2022/04/08 12:20:55;;;;;;;6.65;1.60;;;7.90;99.90;;;;;;5030177;28;21223;-53
2022/04/08 12:23:25;;;;;;;10.18;1.85;;;7.30;99.90;;;;;;5036219;28;20539;-53
2022/04/08 12:25:52;;;;;;;7.65;1.67;;;6.80;99.90;;;;;;5049846;28;20327;-51
2022/04/08 12:28:21;;;;;;;5.47;1.67;;;6.50;99.90;;;;;;5050385;28;20045;-52
2022/04/08 12:30:47;;;;;;;5.72;1.85;;;6.20;99.90;;;;;;5050702;28;20040;-51
2022/04/08 12:33:12;;;;;;;6.22;1.40;;;6.20;99.90;;;;;;5050322;28;20045;-50
2022/04/08 12:35:38;;;;;;;6.78;1.30;;;6.20;99.90;;;;;;5050802;28;20427;-51
2022/04/08 12:38:04;;;;;;;5.65;1.40;;;6.40;99.90;;;;;;5050846;28;20513;-50
2022/04/08 12:40:31;;;;;;;9.27;1.50;;;7.00;99.90;;;;;;5050651;28;20183;-49
2022/04/08 12:42:57;;;;;;;5.88;1.23;;;7.10;99.90;;;;;;5051080;28;20049;-50
2022/04/08 12:45:23;;;;;;;8.00;1.55;;;7.20;99.90;;;;;;5051042;28;20044;-51
2022/04/08 12:47:49;;;;;;;5.13;1.70;;;7.50;99.90;;;;;;5051539;28;20447;-49
2022/04/08 12:50:15;;;;;;;6.93;1.50;;;7.70;99.90;;;;;;5065699;28;20140;-50
2022/04/08 12:52:41;;;;;;;6.43;1.23;;;7.90;99.90;;;;;;5050667;28;20133;-50
2022/04/08 12:55:08;;;;;;;9.40;1.50;;;8.10;99.90;;;;;;5051241;28;20049;-48